createdAt,value
2022-09-28T00:01:40.235Z,0.95
2022-09-28T00:03:41.622Z,1.10
2022-09-28T00:05:42.901Z,0.90
2022-09-28T00:07:44.503Z,1.00
2022-09-28T00:09:45.837Z,1.10
2022-09-28T00:11:49.466Z,1.08
2022-09-28T00:13:52.331Z,1.42
2022-09-28T00:16:04.354Z,1.00
2022-09-28T00:18:05.701Z,1.10
2022-09-28T00:20:07.302Z,0.85
2022-09-28T00:22:08.620Z,1.10
2022-09-28T00:24:17.026Z,0.98
2022-09-28T00:26:18.309Z,0.90
2022-09-28T00:28:19.577Z,0.90
2022-09-28T00:30:21.040Z,0.90
2022-09-28T00:32:24.539Z,1.27
2022-09-28T00:34:31.989Z,0.90
2022-09-28T00:36:33.624Z,0.68
2022-09-28T00:38:34.912Z,0.80
2022-09-28T00:40:36.239Z,0.60
2022-09-28T00:42:37.961Z,0.77
2022-09-28T00:44:54.824Z,0.60
2022-09-28T00:46:56.060Z,0.60
2022-09-28T00:48:59.000Z,0.60
2022-09-28T00:51:02.371Z,0.50
2022-09-28T00:53:12.459Z,0.50
2022-09-28T00:55:15.936Z,0.50
2022-09-28T00:57:17.510Z,0.40
2022-09-28T00:59:18.854Z,0.60
2022-09-28T01:01:20.260Z,0.47
2022-09-28T01:03:21.680Z,0.77
2022-09-28T01:05:24.225Z,0.47
2022-09-28T01:07:25.565Z,0.45
2022-09-28T01:09:27.264Z,0.60
2022-09-28T01:11:31.163Z,0.30
2022-09-28T01:13:32.647Z,0.40
2022-09-28T01:15:37.390Z,0.43
2022-09-28T01:17:48.739Z,0.50
2022-09-28T01:19:52.949Z,0.30
2022-09-28T01:21:59.544Z,0.40
2022-09-28T01:24:13.127Z,0.30
2022-09-28T01:26:14.411Z,0.40
2022-09-28T01:28:17.355Z,0.40
2022-09-28T01:30:20.019Z,0.40
2022-09-28T01:32:39.946Z,0.50
2022-09-28T01:34:44.197Z,0.40
2022-09-28T01:36:50.784Z,0.40
2022-09-28T01:38:55.995Z,0.40
2022-09-28T01:40:59.038Z,0.30
2022-09-28T01:43:05.491Z,0.30
2022-09-28T01:45:10.487Z,0.40
2022-09-28T01:47:13.677Z,0.30
2022-09-28T01:49:19.857Z,0.30
2022-09-28T01:51:34.119Z,0.40
2022-09-28T01:53:43.543Z,0.38
2022-09-28T01:55:46.284Z,0.50
2022-09-28T01:57:52.993Z,0.45
2022-09-28T02:00:08.079Z,0.30
2022-09-28T02:02:16.584Z,0.40
2022-09-28T02:04:19.966Z,0.43
2022-09-28T02:06:45.843Z,0.30
2022-09-28T02:08:54.030Z,0.30
2022-09-28T02:11:02.846Z,0.40
2022-09-28T02:13:07.986Z,0.50
2022-09-28T02:15:20.369Z,0.40
2022-09-28T02:17:21.700Z,0.30
2022-09-28T02:19:25.831Z,0.40
2022-09-28T02:21:36.356Z,0.30
2022-09-28T02:23:39.488Z,0.50
2022-09-28T02:25:45.658Z,0.40
2022-09-28T02:27:55.422Z,0.35
2022-09-28T02:29:56.763Z,0.40
2022-09-28T02:31:58.150Z,0.40
2022-09-28T02:33:59.522Z,0.47
2022-09-28T02:36:00.930Z,0.40
2022-09-28T02:38:02.586Z,0.40
2022-09-28T02:40:09.639Z,0.40
2022-09-28T02:42:20.768Z,0.55
2022-09-28T02:44:32.463Z,0.60
2022-09-28T02:46:45.656Z,0.40
2022-09-28T02:49:22.519Z,0.50
2022-09-28T02:51:30.771Z,0.50
2022-09-28T02:53:37.738Z,0.60
2022-09-28T02:55:38.984Z,0.60
2022-09-28T02:57:40.351Z,0.47
2022-09-28T02:59:50.879Z,0.63
2022-09-28T03:01:58.080Z,0.40
2022-09-28T03:04:31.608Z,0.47
2022-09-28T03:06:37.527Z,0.50
2022-09-28T03:08:38.767Z,0.47
2022-09-28T03:10:58.694Z,0.52
2022-09-28T03:13:00.595Z,0.40
2022-09-28T03:15:08.119Z,0.43
2022-09-28T03:17:09.390Z,0.55
2022-09-28T03:19:14.133Z,0.50
2022-09-28T03:21:15.880Z,0.60
2022-09-28T03:23:24.826Z,0.60
2022-09-28T03:25:26.735Z,0.50
2022-09-28T03:27:28.025Z,0.60
2022-09-28T03:29:31.337Z,0.80
2022-09-28T03:31:32.861Z,0.90
2022-09-28T03:33:34.303Z,0.80
2022-09-28T03:35:35.567Z,1.00
2022-09-28T03:37:36.847Z,1.27
2022-09-28T03:39:38.138Z,0.93
2022-09-28T03:41:39.756Z,1.10
2022-09-28T03:43:41.112Z,1.00
2022-09-28T03:45:42.425Z,1.50
2022-09-28T03:47:47.260Z,1.40
2022-09-28T03:49:48.952Z,1.30
2022-09-28T03:51:50.437Z,1.25
2022-09-28T03:53:51.896Z,1.20
2022-09-28T03:55:53.312Z,2.15
2022-09-28T03:57:57.362Z,1.60
2022-09-28T03:59:58.716Z,1.20
2022-09-28T04:02:00.091Z,1.40
2022-09-28T04:04:01.561Z,1.23
2022-09-28T04:06:02.912Z,1.58
2022-09-28T04:08:04.412Z,1.55
2022-09-28T04:10:05.919Z,1.23
2022-09-28T04:12:07.300Z,1.10
2022-09-28T04:14:08.815Z,1.25
2022-09-28T04:16:10.656Z,1.02
2022-09-28T04:18:12.473Z,1.40
2022-09-28T04:20:14.219Z,1.23
2022-09-28T04:22:15.550Z,1.02
2022-09-28T04:24:17.130Z,1.20
2022-09-28T04:26:23.154Z,1.42
2022-09-28T04:28:43.248Z,1.23
2022-09-28T04:30:46.117Z,1.77
2022-09-28T04:32:47.780Z,1.50
2022-09-28T04:34:49.043Z,1.17
2022-09-28T04:36:50.420Z,1.35
2022-09-28T04:38:53.646Z,1.35
2022-09-28T04:40:55.124Z,1.30
2022-09-28T04:42:56.784Z,1.13
2022-09-28T04:44:58.785Z,0.98
2022-09-28T04:47:04.318Z,1.13
2022-09-28T04:49:06.530Z,1.10
2022-09-28T04:51:08.035Z,1.17
2022-09-28T04:53:09.308Z,1.23
2022-09-28T04:55:16.858Z,0.98
2022-09-28T04:57:18.311Z,1.10
2022-09-28T04:59:19.601Z,1.20
2022-09-28T05:01:23.623Z,1.10
2022-09-28T05:03:25.332Z,0.90
2022-09-28T05:05:26.628Z,1.02
2022-09-28T05:07:27.945Z,1.00
2022-09-28T05:09:29.469Z,1.10
2022-09-28T05:11:30.811Z,1.00
2022-09-28T05:13:32.567Z,0.90
2022-09-28T05:15:34.353Z,0.95
2022-09-28T05:17:35.659Z,1.10
2022-09-28T05:19:36.968Z,1.13
2022-09-28T05:21:38.351Z,1.60
2022-09-28T05:23:40.019Z,1.27
2022-09-28T05:25:41.825Z,1.40
2022-09-28T05:27:43.184Z,1.48
2022-09-28T05:29:44.458Z,1.20
2022-09-28T05:31:45.874Z,1.05
2022-09-28T05:33:47.342Z,1.13
2022-09-28T05:35:53.323Z,1.40
2022-09-28T05:37:56.082Z,1.23
2022-09-28T05:39:57.364Z,1.20
2022-09-28T05:41:58.716Z,1.13
2022-09-28T05:44:00.122Z,1.10
2022-09-28T05:46:01.483Z,1.10
2022-09-28T05:48:02.849Z,1.23
2022-09-28T05:50:04.623Z,1.33
2022-09-28T05:52:06.102Z,1.60
2022-09-28T05:54:08.203Z,1.50
2022-09-28T05:56:09.561Z,1.85
2022-09-28T05:58:11.256Z,1.45
2022-09-28T06:00:12.677Z,1.75
2022-09-28T06:02:13.999Z,1.50
2022-09-28T06:04:16.140Z,1.63
2022-09-28T06:06:17.540Z,2.20
2022-09-28T06:08:19.171Z,1.58
2022-09-28T06:10:20.469Z,1.67
2022-09-28T06:12:22.089Z,1.45
2022-09-28T06:14:23.512Z,1.65
2022-09-28T06:16:25.583Z,1.80
2022-09-28T06:18:26.885Z,2.75
2022-09-28T06:20:29.336Z,1.80
2022-09-28T06:22:30.629Z,2.00
2022-09-28T06:24:31.986Z,1.52
2022-09-28T06:26:33.281Z,2.33
2022-09-28T06:28:34.592Z,1.67
2022-09-28T06:30:38.334Z,1.52
2022-09-28T06:32:39.648Z,1.73
2022-09-28T06:34:42.012Z,1.90
2022-09-28T06:36:43.309Z,1.95
2022-09-28T06:38:45.123Z,1.83
2022-09-28T06:40:46.463Z,2.00
2022-09-28T06:42:57.671Z,2.30
2022-09-28T06:44:59.198Z,1.63
2022-09-28T06:47:01.185Z,1.90
2022-09-28T06:49:04.591Z,1.85
2022-09-28T06:51:06.935Z,1.20
2022-09-28T06:53:11.586Z,1.30
2022-09-28T06:55:12.938Z,1.10
2022-09-28T06:57:14.368Z,1.02
2022-09-28T06:59:15.978Z,1.10
2022-09-28T07:01:17.273Z,0.60
2022-09-28T07:03:20.078Z,0.57
2022-09-28T07:05:26.555Z,0.50
2022-09-28T07:07:27.856Z,0.70
2022-09-28T07:09:32.966Z,0.90
2022-09-28T07:11:39.570Z,0.60
2022-09-28T07:13:50.550Z,0.80
2022-09-28T07:15:55.973Z,0.40
2022-09-28T07:18:02.856Z,0.70
2022-09-28T07:20:17.206Z,0.85
2022-09-28T07:22:27.066Z,0.73
2022-09-28T07:24:36.097Z,1.02
2022-09-28T07:26:37.631Z,0.80
2022-09-28T07:28:40.374Z,1.10
2022-09-28T07:30:44.141Z,0.85
2022-09-28T07:32:45.665Z,2.58
2022-09-28T07:34:48.597Z,1.00
2022-09-28T07:36:50.216Z,0.52
2022-09-28T07:38:51.571Z,1.10
2022-09-28T07:41:11.316Z,0.55
2022-09-28T07:43:16.992Z,0.70
2022-09-28T07:45:20.637Z,0.70
2022-09-28T07:47:30.801Z,0.60
2022-09-28T07:49:35.273Z,1.05
2022-09-28T07:51:36.585Z,1.30
2022-09-28T07:53:40.868Z,0.80
2022-09-28T07:55:44.488Z,1.60
2022-09-28T07:57:48.116Z,0.85
2022-09-28T07:59:49.943Z,0.52
2022-09-28T08:01:51.168Z,0.50
2022-09-28T08:03:56.032Z,1.00
2022-09-28T08:05:58.162Z,0.50
2022-09-28T08:07:59.709Z,0.57
2022-09-28T08:10:01.012Z,0.57
2022-09-28T08:12:03.968Z,0.52
2022-09-28T08:14:05.224Z,0.70
2022-09-28T08:16:08.336Z,0.50
2022-09-28T08:18:09.841Z,0.70
2022-09-28T08:20:29.565Z,0.90
2022-09-28T08:22:32.185Z,0.90
2022-09-28T08:24:33.479Z,0.80
2022-09-28T08:26:34.949Z,0.88
2022-09-28T08:28:36.856Z,0.75
2022-09-28T08:30:38.394Z,0.60
2022-09-28T08:32:39.741Z,1.23
2022-09-28T08:34:41.280Z,0.95
2022-09-28T08:36:43.259Z,1.40
2022-09-28T08:38:44.503Z,0.85
2022-09-28T08:41:09.756Z,0.85
2022-09-28T08:43:29.613Z,0.90
2022-09-28T08:45:33.608Z,2.55
2022-09-28T08:48:04.121Z,1.02
2022-09-28T08:50:07.636Z,0.90
2022-09-28T08:52:13.553Z,1.00
2022-09-28T08:54:23.153Z,1.23
2022-09-28T08:56:27.721Z,1.10
2022-09-28T08:58:31.482Z,1.17
2022-09-28T09:00:38.179Z,0.98
2022-09-28T09:02:40.692Z,1.55
2022-09-28T09:04:42.262Z,1.55
2022-09-28T09:07:02.265Z,1.20
2022-09-28T09:09:08.836Z,1.10
2022-09-28T09:11:30.373Z,1.10
2022-09-28T09:13:44.120Z,1.42
2022-09-28T09:15:51.489Z,1.20
2022-09-28T09:18:11.566Z,1.50
2022-09-28T09:20:16.037Z,1.30
2022-09-28T09:22:20.261Z,1.50
2022-09-28T09:24:30.437Z,1.40
2022-09-28T09:26:41.514Z,1.20
2022-09-28T09:29:01.691Z,1.20
2022-09-28T09:31:08.851Z,1.20
2022-09-28T09:33:30.003Z,1.20
2022-09-28T09:35:37.503Z,1.08
2022-09-28T09:37:44.927Z,1.27
2022-09-28T09:39:46.245Z,1.70
2022-09-28T09:41:47.603Z,1.40
2022-09-28T09:43:55.808Z,1.52
2022-09-28T09:46:15.760Z,1.17
2022-09-28T09:48:23.992Z,2.13
2022-09-28T09:50:32.023Z,2.85
2022-09-28T09:52:57.345Z,10.63
2022-09-28T09:55:14.373Z,4.55
2022-09-28T09:57:20.053Z,2.45
2022-09-28T09:59:35.220Z,1.40
2022-09-28T10:01:38.891Z,1.10
2022-09-28T10:03:42.564Z,1.10
2022-09-28T10:05:44.884Z,0.98
2022-09-28T10:07:55.180Z,1.00
2022-09-28T10:09:58.152Z,0.95
2022-09-28T10:11:59.479Z,0.88
2022-09-28T10:14:00.840Z,1.00
2022-09-28T10:16:02.292Z,0.80
2022-09-28T10:18:06.734Z,1.13
2022-09-28T10:20:11.943Z,1.17
2022-09-28T10:22:17.977Z,1.23
2022-09-28T10:24:30.203Z,1.20
2022-09-28T10:26:36.969Z,1.63
2022-09-28T10:28:50.412Z,1.40
2022-09-28T10:30:52.043Z,1.10
2022-09-28T10:32:58.932Z,1.08
2022-09-28T10:35:18.523Z,1.30
2022-09-28T10:37:19.968Z,1.27
2022-09-28T10:39:33.501Z,1.60
2022-09-28T10:41:48.432Z,1.30
2022-09-28T10:43:51.279Z,0.93
2022-09-28T10:46:06.298Z,0.90
2022-09-28T10:48:15.196Z,0.82
2022-09-28T10:50:23.853Z,1.10
2022-09-28T10:52:41.566Z,0.93
2022-09-28T10:54:52.204Z,1.58
2022-09-28T10:56:54.349Z,1.20
2022-09-28T10:58:55.777Z,0.93
2022-09-28T11:01:01.704Z,1.10
2022-09-28T11:03:03.420Z,1.13
2022-09-28T11:05:06.530Z,0.88
2022-09-28T11:07:21.166Z,0.90
2022-09-28T11:09:38.809Z,1.90
2022-09-28T11:11:42.802Z,1.65
2022-09-28T11:13:45.884Z,3.80
2022-09-28T11:15:47.225Z,4.55
2022-09-28T11:17:48.719Z,1.58
2022-09-28T11:19:50.110Z,1.58
2022-09-28T11:21:51.409Z,1.40
2022-09-28T11:24:07.359Z,1.83
2022-09-28T11:26:09.578Z,1.08
2022-09-28T11:28:22.046Z,1.00
2022-09-28T11:30:32.893Z,1.00
2022-09-28T11:32:43.028Z,2.22
2022-09-28T11:34:59.213Z,1.35
2022-09-28T11:37:10.272Z,1.00
2022-09-28T11:39:17.793Z,1.02
2022-09-28T11:41:31.501Z,1.15
2022-09-28T11:43:56.035Z,1.23
2022-09-28T11:46:20.602Z,1.20
2022-09-28T11:48:23.809Z,1.27
2022-09-28T11:50:40.651Z,1.23
2022-09-28T11:52:57.017Z,1.42
2022-09-28T11:55:05.293Z,1.17
2022-09-28T11:57:11.807Z,1.30
2022-09-28T11:59:19.565Z,1.25
2022-09-28T12:01:27.459Z,1.20
2022-09-28T12:03:31.116Z,1.15
2022-09-28T12:05:32.693Z,1.30
2022-09-28T12:07:38.304Z,1.45
2022-09-28T12:09:47.871Z,1.73
2022-09-28T12:11:51.388Z,2.35
2022-09-28T12:13:56.054Z,1.45
2022-09-28T12:16:38.930Z,2.80
2022-09-28T12:18:28.405Z,1.42
2022-09-28T12:20:32.308Z,1.63
2022-09-28T12:22:36.971Z,1.23
2022-09-28T12:24:41.962Z,1.35
2022-09-28T12:26:48.871Z,1.17
2022-09-28T12:28:53.548Z,1.45
2022-09-28T12:30:55.762Z,1.30
2022-09-28T12:33:13.502Z,1.15
2022-09-28T12:35:19.211Z,1.02
2022-09-28T12:37:26.563Z,1.45
2022-09-28T12:39:58.011Z,0.82
2022-09-28T12:42:18.600Z,0.88
2022-09-28T12:44:34.714Z,1.20
2022-09-28T12:46:39.092Z,1.30
2022-09-28T12:48:43.342Z,1.23
2022-09-28T12:50:57.066Z,2.80
2022-09-28T12:53:10.816Z,3.45
2022-09-28T12:55:30.655Z,1.30
2022-09-28T12:57:42.452Z,1.08
2022-09-28T12:59:53.591Z,1.65
2022-09-28T13:01:57.770Z,1.40
2022-09-28T13:04:22.241Z,2.10
2022-09-28T13:06:29.692Z,1.90
2022-09-28T13:08:55.924Z,1.50
2022-09-28T13:11:07.825Z,1.75
2022-09-28T13:13:21.759Z,1.95
2022-09-28T13:15:28.527Z,1.40
2022-09-28T13:18:08.529Z,1.65
2022-09-28T13:20:18.699Z,2.38
2022-09-28T13:22:42.248Z,1.40
2022-09-28T13:24:46.387Z,1.70
2022-09-28T13:26:47.867Z,1.02
2022-09-28T13:28:51.240Z,1.33
2022-09-28T13:30:53.969Z,1.33
2022-09-28T13:32:59.617Z,1.70
2022-09-28T13:35:05.417Z,1.13
2022-09-28T13:37:16.796Z,1.20
2022-09-28T13:39:44.484Z,1.15
2022-09-28T13:41:47.405Z,1.50
2022-09-28T13:44:11.578Z,1.00
2022-09-28T13:46:33.406Z,1.10
2022-09-28T13:48:44.356Z,1.23
2022-09-28T13:51:00.997Z,1.15
2022-09-28T13:53:08.317Z,1.08
2022-09-28T13:55:12.852Z,0.80
2022-09-28T13:57:21.451Z,0.88
2022-09-28T13:59:25.554Z,1.10
2022-09-28T14:01:30.412Z,1.50
2022-09-28T14:04:04.280Z,1.08
2022-09-28T14:06:25.854Z,3.17
2022-09-28T14:08:34.300Z,13.20
2022-09-28T14:10:49.335Z,3.97
2022-09-28T14:12:51.542Z,1.23
2022-09-28T14:14:53.117Z,1.08
2022-09-28T14:17:20.344Z,1.23
2022-09-28T14:19:24.238Z,2.72
2022-09-28T14:21:25.493Z,1.70
2022-09-28T14:23:48.189Z,2.67
2022-09-28T14:26:07.972Z,1.80
2022-09-28T14:28:30.132Z,1.30
2022-09-28T14:30:52.033Z,1.67
2022-09-28T14:32:54.876Z,1.10
2022-09-28T14:35:06.311Z,1.40
2022-09-28T14:37:40.138Z,1.00
2022-09-28T14:40:02.994Z,1.40
2022-09-28T14:42:12.753Z,1.50
2022-09-28T14:44:16.292Z,1.48
2022-09-28T14:46:18.050Z,1.30
2022-09-28T14:48:20.563Z,1.30
2022-09-28T14:50:28.453Z,1.40
2022-09-28T14:52:58.746Z,1.40
2022-09-28T14:55:00.027Z,1.23
2022-09-28T14:57:06.012Z,1.50
2022-09-28T14:59:12.000Z,1.70
2022-09-28T15:01:17.157Z,1.50
2022-09-28T15:03:20.624Z,1.50
2022-09-28T15:05:30.463Z,1.80
2022-09-28T15:07:47.426Z,1.95
2022-09-28T15:09:50.315Z,1.40
2022-09-28T15:11:55.388Z,1.30
2022-09-28T15:14:07.167Z,1.08
2022-09-28T15:16:11.450Z,0.90
2022-09-28T15:18:12.794Z,1.08
2022-09-28T15:20:24.824Z,1.15
2022-09-28T15:22:26.247Z,0.90
2022-09-28T15:24:31.799Z,0.80
2022-09-28T15:26:34.359Z,0.93
2022-09-28T15:28:36.670Z,0.73
2022-09-28T15:30:38.346Z,0.80
2022-09-28T15:32:39.708Z,0.80
2022-09-28T15:34:54.358Z,0.90
2022-09-28T15:36:56.338Z,0.90
2022-09-28T15:39:02.731Z,0.80
2022-09-28T15:41:07.587Z,0.80
2022-09-28T15:43:24.702Z,0.90
2022-09-28T15:45:36.791Z,0.80
2022-09-28T15:47:40.056Z,0.90
2022-09-28T15:49:44.229Z,1.08
2022-09-28T15:51:47.869Z,1.58
2022-09-28T15:53:58.307Z,1.73
2022-09-28T15:56:03.624Z,1.10
2022-09-28T15:58:15.921Z,1.00
2022-09-28T16:00:30.247Z,1.17
2022-09-28T16:02:31.684Z,1.98
2022-09-28T16:04:38.992Z,1.70
2022-09-28T16:06:40.722Z,3.88
2022-09-28T16:08:43.403Z,2.67
2022-09-28T16:10:53.292Z,2.90
2022-09-28T16:12:58.735Z,4.15
2022-09-28T16:15:04.154Z,1.40
2022-09-28T16:17:05.526Z,1.40
2022-09-28T16:19:07.308Z,1.10
2022-09-28T16:21:24.734Z,1.15
2022-09-28T16:23:29.951Z,0.82
2022-09-28T16:25:33.901Z,1.20
2022-09-28T16:27:42.370Z,0.93
2022-09-28T16:29:45.005Z,0.98
2022-09-28T16:31:52.617Z,1.10
2022-09-28T16:33:59.181Z,1.27
2022-09-28T16:36:02.562Z,0.75
2022-09-28T16:38:14.463Z,0.90
2022-09-28T16:40:15.816Z,0.77
2022-09-28T16:42:17.110Z,0.73
2022-09-28T16:44:20.668Z,0.88
2022-09-28T16:46:23.768Z,1.10
2022-09-28T16:48:31.684Z,1.60
2022-09-28T16:50:32.964Z,1.10
2022-09-28T16:52:56.796Z,1.45
2022-09-28T16:55:36.174Z,2.33
2022-09-28T16:57:38.909Z,1.70
2022-09-28T16:59:40.517Z,2.20
2022-09-28T17:01:43.724Z,1.55
2022-09-28T17:03:48.722Z,1.48
2022-09-28T17:05:50.700Z,1.50
2022-09-28T17:08:02.076Z,1.70
2022-09-28T17:10:09.071Z,1.40
2022-09-28T17:12:16.202Z,2.03
2022-09-28T17:14:18.429Z,1.80
2022-09-28T17:16:32.688Z,1.42
2022-09-28T17:18:43.684Z,1.90
2022-09-28T17:20:46.597Z,2.10
2022-09-28T17:22:48.541Z,1.55
2022-09-28T17:24:49.944Z,1.42
2022-09-28T17:26:51.635Z,1.70
2022-09-28T17:28:53.560Z,1.58
2022-09-28T17:30:54.860Z,1.30
2022-09-28T17:32:57.141Z,1.65
2022-09-28T17:35:19.846Z,1.75
2022-09-28T17:37:19.684Z,1.60
2022-09-28T17:39:21.232Z,1.70
2022-09-28T17:41:22.620Z,1.88
2022-09-28T17:43:23.928Z,1.70
2022-09-28T17:45:28.462Z,1.90
2022-09-28T17:47:34.203Z,1.60
2022-09-28T17:49:35.794Z,1.70
2022-09-28T17:51:37.761Z,1.77
2022-09-28T17:53:39.252Z,2.28
2022-09-28T17:55:40.693Z,2.38
2022-09-28T17:57:42.055Z,2.25
2022-09-28T17:59:43.448Z,2.20
2022-09-28T18:01:44.928Z,2.10
2022-09-28T18:03:46.532Z,1.80
2022-09-28T18:05:58.069Z,1.90
2022-09-28T18:07:59.401Z,2.38
2022-09-28T18:10:00.743Z,1.98
2022-09-28T18:12:04.372Z,1.90
2022-09-28T18:14:10.440Z,2.15
2022-09-28T18:16:12.979Z,2.10
2022-09-28T18:18:14.621Z,2.13
2022-09-28T18:20:15.917Z,1.77
2022-09-28T18:22:17.212Z,1.80
2022-09-28T18:24:18.582Z,1.65
2022-09-28T18:26:19.931Z,1.85
2022-09-28T18:28:22.926Z,1.80
2022-09-28T18:30:24.763Z,1.55
2022-09-28T18:32:26.136Z,1.70
2022-09-28T18:34:27.442Z,1.90
2022-09-28T18:36:29.407Z,1.85
2022-09-28T18:38:30.740Z,2.00
2022-09-28T18:40:35.596Z,1.60
2022-09-28T18:42:37.111Z,1.67
2022-09-28T18:44:38.395Z,1.70
2022-09-28T18:46:41.973Z,1.67
2022-09-28T18:48:43.902Z,1.70
2022-09-28T18:50:45.216Z,1.90
2022-09-28T18:52:47.490Z,1.90
2022-09-28T18:54:50.624Z,1.80
2022-09-28T18:56:56.243Z,2.00
2022-09-28T18:58:58.304Z,2.13
2022-09-28T19:01:25.262Z,2.10
2022-09-28T19:03:21.007Z,1.98
2022-09-28T19:05:22.435Z,2.17
2022-09-28T19:07:24.474Z,2.28
2022-09-28T19:09:26.464Z,2.70
2022-09-28T19:11:28.452Z,2.22
2022-09-28T19:13:29.805Z,2.28
2022-09-28T19:15:32.132Z,2.47
2022-09-28T19:17:33.519Z,2.58
2022-09-28T19:19:35.731Z,2.45
2022-09-28T19:21:37.064Z,2.47
2022-09-28T19:23:39.173Z,2.17
2022-09-28T19:25:41.006Z,2.17
2022-09-28T19:27:42.339Z,2.30
2022-09-28T19:29:43.708Z,2.80
2022-09-28T19:31:45.147Z,2.83
2022-09-28T19:33:48.831Z,2.35
2022-09-28T19:36:01.335Z,2.22
2022-09-28T19:38:02.647Z,2.60
2022-09-28T19:40:08.535Z,2.58
2022-09-28T19:42:09.884Z,2.35
2022-09-28T19:44:18.142Z,2.60
2022-09-28T19:46:21.392Z,3.10
2022-09-28T19:48:26.645Z,3.92
2022-09-28T19:50:27.984Z,3.33
2022-09-28T19:52:29.417Z,3.20
2022-09-28T19:54:36.308Z,3.70
2022-09-28T19:56:38.051Z,3.67
2022-09-28T19:58:39.522Z,4.07
2022-09-28T20:00:40.896Z,3.92
2022-09-28T20:02:42.220Z,3.67
2022-09-28T20:04:43.643Z,3.72
2022-09-28T20:06:45.157Z,3.85
2022-09-28T20:08:46.454Z,3.63
2022-09-28T20:10:54.813Z,3.63
2022-09-28T20:12:56.118Z,3.80
2022-09-28T20:14:57.810Z,4.07
2022-09-28T20:16:59.190Z,4.03
2022-09-28T20:19:03.237Z,4.20
2022-09-28T20:21:05.585Z,4.18
2022-09-28T20:23:07.013Z,3.95
2022-09-28T20:25:08.313Z,4.10
2022-09-28T20:27:09.796Z,4.72
2022-09-28T20:29:12.028Z,4.40
2022-09-28T20:31:14.754Z,4.30
2022-09-28T20:33:27.481Z,3.97
2022-09-28T20:35:33.086Z,4.20
2022-09-28T20:37:34.797Z,4.30
2022-09-28T20:39:36.061Z,4.55
2022-09-28T20:41:37.408Z,4.18
2022-09-28T20:43:39.524Z,4.78
2022-09-28T20:45:40.822Z,4.53
2022-09-28T20:47:42.128Z,4.57
2022-09-28T20:49:45.458Z,4.43
2022-09-28T20:51:47.027Z,4.32
2022-09-28T20:53:49.907Z,4.35
2022-09-28T20:55:57.841Z,4.75
2022-09-28T20:58:02.157Z,4.20
2022-09-28T21:00:03.942Z,4.60
2022-09-28T21:02:05.285Z,4.72
2022-09-28T21:04:09.658Z,4.38
2022-09-28T21:06:12.426Z,4.53
2022-09-28T21:08:14.224Z,4.63
2022-09-28T21:10:16.729Z,4.53
2022-09-28T21:12:18.122Z,4.10
2022-09-28T21:14:20.985Z,4.20
2022-09-28T21:16:22.412Z,3.53
2022-09-28T21:18:23.776Z,3.75
2022-09-28T21:20:25.290Z,3.70
2022-09-28T21:22:28.421Z,3.20
2022-09-28T21:24:30.094Z,3.03
2022-09-28T21:26:31.663Z,3.17
2022-09-28T21:28:33.053Z,3.53
2022-09-28T21:30:34.368Z,3.45
2022-09-28T21:32:35.722Z,3.53
2022-09-28T21:34:37.072Z,3.08
2022-09-28T21:36:38.882Z,2.70
2022-09-28T21:38:40.161Z,2.90
2022-09-28T21:40:42.083Z,2.40
2022-09-28T21:42:43.436Z,2.50
2022-09-28T21:44:44.748Z,3.30
2022-09-28T21:46:46.088Z,2.97
2022-09-28T21:48:51.332Z,3.28
2022-09-28T21:51:03.052Z,2.53
2022-09-28T21:53:04.517Z,3.08
2022-09-28T21:55:06.250Z,3.30
2022-09-28T21:57:09.030Z,3.33
2022-09-28T21:59:10.324Z,3.58
2022-09-28T22:01:15.443Z,3.55
2022-09-28T22:03:17.113Z,3.30
2022-09-28T22:05:19.159Z,4.05
2022-09-28T22:07:20.480Z,3.40
2022-09-28T22:09:21.799Z,3.97
2022-09-28T22:11:23.984Z,3.95
2022-09-28T22:13:25.236Z,3.60
2022-09-28T22:15:26.541Z,3.75
2022-09-28T22:17:27.847Z,3.67
2022-09-28T22:19:29.126Z,4.22
2022-09-28T22:21:32.692Z,3.85
2022-09-28T22:23:34.030Z,3.97
2022-09-28T22:25:35.313Z,5.30
2022-09-28T22:27:36.599Z,3.60
2022-09-28T22:29:37.868Z,3.55
2022-09-28T22:31:40.124Z,3.45
2022-09-28T22:33:41.440Z,3.65
2022-09-28T22:35:42.700Z,3.25
2022-09-28T22:37:44.200Z,3.70
2022-09-28T22:39:45.649Z,3.67
2022-09-28T22:41:47.562Z,3.35
2022-09-28T22:43:49.811Z,3.10
2022-09-28T22:46:00.293Z,3.30
2022-09-28T22:48:01.884Z,3.20
2022-09-28T22:50:03.190Z,3.22
2022-09-28T22:52:04.486Z,3.20
2022-09-28T22:54:06.029Z,3.45
2022-09-28T22:56:07.461Z,3.67
2022-09-28T22:58:08.796Z,3.28
2022-09-28T23:00:10.331Z,3.20
2022-09-28T23:02:12.735Z,3.45
2022-09-28T23:04:14.015Z,3.47
2022-09-28T23:06:16.669Z,3.15
2022-09-28T23:08:17.976Z,2.85
2022-09-28T23:10:19.248Z,2.80
2022-09-28T23:12:20.534Z,2.67
2022-09-28T23:14:22.644Z,2.70
2022-09-28T23:16:25.621Z,2.42
2022-09-28T23:18:27.948Z,2.95
2022-09-28T23:20:29.271Z,2.40
2022-09-28T23:22:30.542Z,2.70
2022-09-28T23:24:32.051Z,2.80
2022-09-28T23:26:34.287Z,2.92
2022-09-28T23:28:35.559Z,2.80
2022-09-28T23:30:37.047Z,2.70
2022-09-28T23:32:38.357Z,2.35
2022-09-28T23:34:39.857Z,2.63
2022-09-28T23:36:41.253Z,2.80
2022-09-28T23:38:42.760Z,2.53
2022-09-28T23:40:47.347Z,2.63
2022-09-28T23:42:48.782Z,2.80
2022-09-28T23:44:50.057Z,3.10
2022-09-28T23:46:51.460Z,2.67
2022-09-28T23:48:52.798Z,3.28
2022-09-28T23:50:54.104Z,2.85
2022-09-28T23:52:55.517Z,3.30
2022-09-28T23:54:56.802Z,13.48
2022-09-28T23:56:58.184Z,5.45
2022-09-28T23:58:59.579Z,3.10
